This is the latest recevied weather packets stored in our database for station/object W4KAB. If no packets are shown the sender has not sent any weather packets the latest 1 day(s).
| Time | Temp. | Humidity | Pressure | Rain* | Wind** | Luminosity | Snow |
|---|---|---|---|---|---|---|---|
| 1836274628 | 17.78° C | 95% | 1020.8 hPa | 0 mm | 0 m/s | 0 W/m² | - |
| 1836274481 | 17.22° C | 95% | 1020.8 hPa | 0 mm | 0 m/s | 0 W/m² | - |
| 1836274325 | 17.78° C | 94% | 1020.8 hPa | 0 mm | 0 m/s | 0 W/m² | - |
| 1836274179 | 17.22° C | 95% | 1020.8 hPa | 0 mm | 0 m/s | 0 W/m² | - |
| 1836274024 | 17.78° C | 94% | 1020.8 hPa | 0 mm | 0 m/s | 0 W/m² | - |
| 1778041327 | 20° C | 55% | 1014.9 hPa | 0 mm | 0.45 m/s, 260° | 0 W/m² | - |
| 1778041025 | 20° C | 55% | 1014.9 hPa | 0 mm | 0 m/s | 0 W/m² | - |
| 1778040721 | 20° C | 56% | 1014.8 hPa | 0 mm | 0 m/s | 0 W/m² | - |
| 1778040419 | 20° C | 55% | 1015 hPa | 0 mm | 0 m/s | 0 W/m² | - |
| 1778040115 | 19.44° C | 55% | 1014.9 hPa | 0 mm | 0 m/s | 0 W/m² | - |
| 1778039812 | 19.44° C | 56% | 1014.8 hPa | 0 mm | 0 m/s | 0 W/m² | - |
| 1778039509 | 20° C | 54% | 1015 hPa | 0 mm | 0 m/s | 0 W/m² | - |
| 1778039206 | 20° C | 54% | 1015.1 hPa | 0 mm | 0 m/s | 0 W/m² | - |
| 1778038903 | 20° C | 53% | 1015 hPa | 0 mm | 0 m/s | 0 W/m² | - |
| 1778038601 | 20° C | 54% | 1015 hPa | 0 mm | 0 m/s | 0 W/m² | - |
| 1778038297 | 20° C | 54% | 1015 hPa | 0 mm | 0 m/s | 0 W/m² | - |
| 1778037995 | 20° C | 53% | 1015 hPa | 0 mm | 0 m/s | 0 W/m² | - |
| 1778037691 | 20° C | 53% | 1015 hPa | 0 mm | 0 m/s | 0 W/m² | - |
| 1778037388 | 20° C | 53% | 1014.9 hPa | 0 mm | 0 m/s | 0 W/m² | - |
| 1778037085 | 20.56° C | 53% | 1015 hPa | 0 mm | 0 m/s | 0 W/m² | - |
| 1778036784 | 20.56° C | 52% | 1014.7 hPa | 0 mm | 0 m/s | 0 W/m² | - |
| 1778036481 | 20° C | 53% | 1014.9 hPa | 0 mm | 0 m/s | 0 W/m² | - |
| 1778036178 | 20° C | 54% | 1014.8 hPa | 0 mm | 0 m/s | 0 W/m² | - |
| 1778035873 | 20.56° C | 54% | 1015 hPa | 0 mm | 0 m/s | 0 W/m² | - |
| 1778035571 | 20.56° C | 53% | 1015.2 hPa | 0 mm | 0 m/s | 0 W/m² | - |
* Rain latest hour (hover to see other rain measurements)
** Current wind speed in m/s (hover to see current wind gust speed)